createdAt,value
2022-10-18T00:00:19.766Z,100670.88
2022-10-18T00:02:46.581Z,100666.56
2022-10-18T00:05:13.290Z,100662.28
2022-10-18T00:07:39.992Z,100668.25
2022-10-18T00:10:07.537Z,100658.81
2022-10-18T00:12:36.752Z,100658.78
2022-10-18T00:15:07.226Z,100657.88
2022-10-18T00:17:38.845Z,100650.19
2022-10-18T00:20:07.462Z,100652.75
2022-10-18T00:22:40.593Z,100639.09
2022-10-18T00:25:09.820Z,100645.00
2022-10-18T00:27:37.506Z,100647.56
2022-10-18T00:30:06.147Z,100648.38
2022-10-18T00:32:38.404Z,100650.88
2022-10-18T00:35:07.535Z,100650.06
2022-10-18T00:37:36.017Z,100644.91
2022-10-18T00:40:03.042Z,100649.16
2022-10-18T00:42:36.659Z,100638.03
2022-10-18T00:45:18.574Z,100645.72
2022-10-18T00:47:53.250Z,100650.03
2022-10-18T00:50:22.962Z,100647.44
2022-10-18T00:52:58.357Z,100640.59
2022-10-18T00:55:32.005Z,100645.72
2022-10-18T00:57:59.106Z,100644.03
2022-10-18T01:00:25.842Z,100642.28
2022-10-18T01:02:52.775Z,100644.88
2022-10-18T01:05:20.654Z,100644.88
2022-10-18T01:08:06.961Z,100649.13
2022-10-18T01:11:06.999Z,100640.63
2022-10-18T01:13:51.198Z,100637.22
2022-10-18T01:16:53.430Z,100642.38
2022-10-18T01:19:49.281Z,100645.81
2022-10-18T01:22:36.074Z,100644.97
2022-10-18T01:25:51.657Z,100650.09
2022-10-18T01:28:30.303Z,100656.03
2022-10-18T01:31:06.145Z,100652.59
2022-10-18T01:33:53.694Z,100650.03
2022-10-18T01:36:43.971Z,100649.19
2022-10-18T01:39:18.425Z,100653.44
2022-10-18T01:41:47.936Z,100652.53
2022-10-18T01:44:23.428Z,100655.88
2022-10-18T01:46:56.305Z,100645.66
2022-10-18T01:49:24.752Z,100648.22
2022-10-18T01:51:51.711Z,100655.09
2022-10-18T01:54:27.564Z,100651.75
2022-10-18T01:57:07.347Z,100653.59
2022-10-18T02:00:02.626Z,100657.97
2022-10-18T02:02:50.825Z,100655.53
2022-10-18T02:05:44.910Z,100663.25
2022-10-18T02:08:38.503Z,100658.19
2022-10-18T02:11:12.975Z,100659.91
2022-10-18T02:13:57.685Z,100663.38
2022-10-18T02:16:37.740Z,100661.69
2022-10-18T02:19:37.475Z,100665.13
2022-10-18T02:22:07.037Z,100665.94
2022-10-18T02:24:45.997Z,100660.78
2022-10-18T02:27:12.969Z,100667.63
2022-10-18T02:29:42.163Z,100665.06
2022-10-18T02:32:19.967Z,100662.44
2022-10-18T02:34:58.600Z,100663.31
2022-10-18T02:37:35.395Z,100671.88
2022-10-18T02:40:05.930Z,100666.75
2022-10-18T02:42:48.919Z,100659.09
2022-10-18T02:45:17.162Z,100664.25
2022-10-18T02:47:44.216Z,100664.28
2022-10-18T02:50:11.369Z,100660.06
2022-10-18T02:52:38.163Z,100656.66
2022-10-18T02:55:06.871Z,100661.78
2022-10-18T02:57:34.467Z,100656.72
2022-10-18T03:00:01.412Z,100658.47
2022-10-18T03:02:28.333Z,100648.19
2022-10-18T03:04:55.157Z,100652.53
2022-10-18T03:07:22.118Z,100654.19
2022-10-18T03:09:49.024Z,100643.09
2022-10-18T03:12:16.043Z,100645.59
2022-10-18T03:14:42.944Z,100643.03
2022-10-18T03:17:09.692Z,100642.13
2022-10-18T03:19:38.516Z,100631.00
2022-10-18T03:22:05.719Z,100635.25
2022-10-18T03:24:32.618Z,100641.22
2022-10-18T03:26:59.427Z,100642.09
2022-10-18T03:29:26.246Z,100642.94
2022-10-18T03:31:52.963Z,100644.66
2022-10-18T03:34:19.826Z,100626.69
2022-10-18T03:36:46.654Z,100631.81
2022-10-18T03:39:13.722Z,100634.38
2022-10-18T03:41:40.534Z,100633.50
2022-10-18T03:44:07.339Z,100642.88
2022-10-18T03:46:34.064Z,100636.88
2022-10-18T03:49:00.772Z,100642.88
2022-10-18T03:51:27.478Z,100648.84
2022-10-18T03:53:54.206Z,100657.38
2022-10-18T03:56:21.002Z,100653.13
2022-10-18T03:58:47.733Z,100653.09
2022-10-18T04:01:14.484Z,100641.09
2022-10-18T04:03:41.237Z,100649.63
2022-10-18T04:06:09.830Z,100645.34
2022-10-18T04:08:36.595Z,100651.31
2022-10-18T04:11:12.061Z,100660.72
2022-10-18T04:13:38.872Z,100668.41
2022-10-18T04:16:05.812Z,100661.59
2022-10-18T04:18:32.508Z,100647.03
2022-10-18T04:20:59.225Z,100659.00
2022-10-18T04:23:25.992Z,100666.69
2022-10-18T04:25:52.682Z,100669.25
2022-10-18T04:28:19.441Z,100666.66
2022-10-18T04:30:55.178Z,100662.38
2022-10-18T04:33:21.891Z,100670.94
2022-10-18T04:35:53.004Z,100666.66
2022-10-18T04:38:20.485Z,100678.63
2022-10-18T04:40:47.245Z,100677.75
2022-10-18T04:43:14.334Z,100685.44
2022-10-18T04:45:41.787Z,100681.97
2022-10-18T04:48:08.648Z,100674.28
2022-10-18T04:50:35.323Z,100666.56
2022-10-18T04:53:02.078Z,100660.53
2022-10-18T04:55:28.812Z,100669.06
2022-10-18T04:57:55.700Z,100658.88
2022-10-18T05:00:22.585Z,100661.41
2022-10-18T05:02:49.356Z,100669.09
2022-10-18T05:05:16.121Z,100681.06
2022-10-18T05:07:42.863Z,100684.47
2022-10-18T05:10:09.852Z,100682.78
2022-10-18T05:12:36.550Z,100682.75
2022-10-18T05:15:03.964Z,100687.88
2022-10-18T05:17:30.645Z,100688.72
2022-10-18T05:19:57.410Z,100687.88
2022-10-18T05:22:24.104Z,100690.44
2022-10-18T05:24:50.804Z,100693.84
2022-10-18T05:27:17.488Z,100697.25
2022-10-18T05:29:44.230Z,100707.50
2022-10-18T05:32:10.938Z,100710.97
2022-10-18T05:34:37.681Z,100695.56
2022-10-18T05:37:04.411Z,100702.44
2022-10-18T05:39:31.339Z,100708.41
2022-10-18T05:41:58.458Z,100695.56
2022-10-18T05:44:25.496Z,100693.00
2022-10-18T05:46:52.441Z,100693.00
2022-10-18T05:49:19.418Z,100690.44
2022-10-18T05:51:46.155Z,100686.13
2022-10-18T05:54:13.908Z,100694.66
2022-10-18T05:56:41.650Z,100690.44
2022-10-18T05:59:12.312Z,100684.44
2022-10-18T06:01:43.529Z,100687.91
2022-10-18T06:04:10.609Z,100693.91
2022-10-18T06:06:38.899Z,100683.66
2022-10-18T06:09:07.417Z,100689.69
2022-10-18T06:11:36.064Z,100692.25
2022-10-18T06:14:04.242Z,100702.50
2022-10-18T06:16:32.590Z,100699.94
2022-10-18T06:19:00.009Z,100699.03
2022-10-18T06:21:27.094Z,100700.75
2022-10-18T06:23:57.421Z,100700.75
2022-10-18T06:26:25.481Z,100693.91
2022-10-18T06:28:52.346Z,100699.91
2022-10-18T06:31:21.262Z,100699.91
2022-10-18T06:33:49.178Z,100708.44
2022-10-18T06:36:22.058Z,100702.47
2022-10-18T06:38:48.981Z,100710.16
2022-10-18T06:41:16.150Z,100718.69
2022-10-18T06:43:43.785Z,100727.28
2022-10-18T06:46:10.647Z,100731.50
2022-10-18T06:48:39.069Z,100728.94
2022-10-18T06:51:07.574Z,100725.47
2022-10-18T06:53:44.058Z,100718.63
2022-10-18T06:56:20.075Z,100722.03
2022-10-18T06:58:46.815Z,100727.13
2022-10-18T07:01:16.770Z,100744.16
2022-10-18T07:03:46.159Z,100736.47
2022-10-18T07:06:16.690Z,100743.28
2022-10-18T07:08:44.373Z,100748.38
2022-10-18T07:11:37.237Z,100747.50
2022-10-18T07:14:04.908Z,100746.59
2022-10-18T07:16:33.368Z,100749.16
2022-10-18T07:19:00.261Z,100752.56
2022-10-18T07:21:27.330Z,100757.59
2022-10-18T07:23:54.166Z,100760.16
2022-10-18T07:26:33.086Z,100760.16
2022-10-18T07:29:12.172Z,100763.53
2022-10-18T07:31:39.291Z,100767.84
2022-10-18T07:34:08.179Z,100774.59
2022-10-18T07:36:35.196Z,100775.44
2022-10-18T07:39:02.411Z,100781.34
2022-10-18T07:41:29.971Z,100786.44
2022-10-18T07:43:56.700Z,100788.94
2022-10-18T07:46:23.482Z,100790.56
2022-10-18T07:48:51.025Z,100793.91
2022-10-18T07:51:21.897Z,100796.41
2022-10-18T07:53:48.622Z,100797.19
2022-10-18T07:56:21.221Z,100793.69
2022-10-18T07:58:52.086Z,100805.59
2022-10-18T08:01:21.585Z,100796.91
2022-10-18T08:03:49.155Z,100811.38
2022-10-18T08:06:18.490Z,100801.84
2022-10-18T08:08:46.534Z,100800.06
2022-10-18T08:11:21.154Z,100804.22
2022-10-18T08:13:48.805Z,100811.81
2022-10-18T08:16:19.755Z,100816.00
2022-10-18T08:18:46.587Z,100815.97
2022-10-18T08:21:15.235Z,100818.50
2022-10-18T08:23:42.919Z,100820.13
2022-10-18T08:26:14.374Z,100817.50
2022-10-18T08:28:46.154Z,100820.94
2022-10-18T08:31:21.012Z,100827.78
2022-10-18T08:33:48.084Z,100832.09
2022-10-18T08:36:18.462Z,100836.38
2022-10-18T08:38:45.320Z,100844.06
2022-10-18T08:41:55.059Z,100839.75
2022-10-18T08:44:40.502Z,100839.75
2022-10-18T08:47:21.234Z,100847.38
2022-10-18T08:49:52.593Z,100843.91
2022-10-18T08:53:01.373Z,100845.56
2022-10-18T08:55:44.638Z,100845.50
2022-10-18T08:58:26.717Z,100841.97
2022-10-18T09:00:59.374Z,100835.88
2022-10-18T09:04:00.770Z,100834.97
2022-10-18T09:06:49.114Z,100839.09
2022-10-18T09:10:05.024Z,100840.69
2022-10-18T09:13:05.688Z,100828.56
2022-10-18T09:15:58.313Z,100831.00
2022-10-18T09:18:57.755Z,100834.25
2022-10-18T09:21:37.687Z,100843.44
2022-10-18T09:24:38.144Z,100847.56
2022-10-18T09:27:16.975Z,100849.00
2022-10-18T09:30:28.082Z,100859.06
2022-10-18T09:33:19.733Z,100864.88
2022-10-18T09:36:01.432Z,100873.97
2022-10-18T09:38:47.990Z,100876.31
2022-10-18T09:41:32.092Z,100875.25
2022-10-18T09:44:17.781Z,100871.59
2022-10-18T09:46:53.689Z,100863.69
2022-10-18T09:49:29.600Z,100871.34
2022-10-18T09:52:02.056Z,100874.69
2022-10-18T09:54:38.920Z,100875.44
2022-10-18T09:57:32.139Z,100880.50
2022-10-18T10:00:03.417Z,100887.16
2022-10-18T10:02:30.245Z,100890.47
2022-10-18T10:04:57.155Z,100887.69
2022-10-18T10:07:35.415Z,100889.25
2022-10-18T10:10:24.378Z,100899.56
2022-10-18T10:13:22.914Z,100898.63
2022-10-18T10:16:03.021Z,100899.38
2022-10-18T10:18:33.917Z,100900.13
2022-10-18T10:21:08.115Z,100901.78
2022-10-18T10:23:46.007Z,100898.25
2022-10-18T10:26:34.784Z,100900.94
2022-10-18T10:29:01.612Z,100900.13
2022-10-18T10:31:34.152Z,100907.59
2022-10-18T10:34:03.888Z,100905.63
2022-10-18T10:36:32.918Z,100908.72
2022-10-18T10:39:07.202Z,100900.63
2022-10-18T10:41:34.916Z,100903.84
2022-10-18T10:44:05.149Z,100899.88
2022-10-18T10:46:36.661Z,100904.22
2022-10-18T10:49:38.133Z,100902.28
2022-10-18T10:52:28.278Z,100904.09
2022-10-18T10:57:49.536Z,100893.78
2022-10-18T11:00:42.745Z,100912.44
2022-10-18T11:03:29.557Z,100904.41
2022-10-18T11:06:00.327Z,100902.22
2022-10-18T11:08:38.143Z,100912.16
2022-10-18T11:11:23.172Z,100900.94
2022-10-18T11:14:20.972Z,100900.00
2022-10-18T11:17:19.795Z,100898.84
2022-10-18T11:20:07.369Z,100905.81
2022-10-18T11:22:45.050Z,100898.63
2022-10-18T11:25:16.579Z,100902.06
2022-10-18T11:28:01.513Z,100900.41
2022-10-18T11:31:09.302Z,100891.44
2022-10-18T11:34:09.507Z,100900.66
2022-10-18T11:36:56.145Z,100895.28
2022-10-18T11:40:08.487Z,100897.53
2022-10-18T11:43:12.272Z,100900.41
2022-10-18T11:46:01.006Z,100903.91
2022-10-18T11:49:15.435Z,100899.81
2022-10-18T11:52:10.355Z,100884.25
2022-10-18T11:54:55.973Z,100884.91
2022-10-18T11:58:01.977Z,100882.56
2022-10-18T12:00:49.189Z,100891.13
2022-10-18T12:03:44.486Z,100892.34
2022-10-18T12:06:21.857Z,100879.72
2022-10-18T12:08:57.307Z,100867.41
2022-10-18T12:11:43.956Z,100869.19
2022-10-18T12:14:38.353Z,100875.41
2022-10-18T12:17:41.725Z,100868.22
2022-10-18T12:20:24.845Z,100870.56
2022-10-18T12:23:29.842Z,100853.19
2022-10-18T12:26:10.306Z,100858.03
2022-10-18T12:29:03.006Z,100861.25
2022-10-18T12:31:54.107Z,100858.50
2022-10-18T12:34:23.883Z,100871.25
2022-10-18T12:37:41.198Z,100870.53
2022-10-18T12:40:25.646Z,100868.72
2022-10-18T12:42:53.712Z,100871.56
2022-10-18T12:45:34.770Z,100868.28
2022-10-18T12:48:06.776Z,100863.34
2022-10-18T12:50:42.481Z,100857.72
2022-10-18T12:53:12.376Z,100861.66
2022-10-18T12:55:47.400Z,100864.69
2022-10-18T12:58:14.099Z,100860.00
2022-10-18T13:00:43.746Z,100863.03
2022-10-18T13:03:11.386Z,100865.16
2022-10-18T13:05:55.943Z,100869.88
2022-10-18T13:08:33.843Z,100866.66
2022-10-18T13:11:09.601Z,100867.00
2022-10-18T13:13:54.292Z,100866.38
2022-10-18T13:16:35.727Z,100859.88
2022-10-18T13:19:23.144Z,100867.31
2022-10-18T13:22:27.982Z,100866.28
2022-10-18T13:25:29.365Z,100854.88
2022-10-18T13:28:37.856Z,100858.66
2022-10-18T13:31:27.254Z,100864.16
2022-10-18T13:33:54.141Z,100859.13
2022-10-18T13:36:23.606Z,100860.91
2022-10-18T13:38:57.625Z,100863.59
2022-10-18T13:41:31.393Z,100862.13
2022-10-18T13:44:28.305Z,100857.31
2022-10-18T13:46:54.966Z,100861.88
2022-10-18T13:49:39.666Z,100858.72
2022-10-18T13:52:43.299Z,100858.22
2022-10-18T13:56:13.109Z,100867.31
2022-10-18T13:59:13.105Z,100866.91
2022-10-18T14:02:13.250Z,100864.81
2022-10-18T14:05:32.308Z,100863.53
2022-10-18T14:08:10.559Z,100867.34
2022-10-18T14:11:02.222Z,100868.53
2022-10-18T14:14:03.281Z,100870.53
2022-10-18T14:16:46.886Z,100870.03
2022-10-18T14:19:44.785Z,100869.47
2022-10-18T14:22:43.218Z,100866.28
2022-10-18T14:25:35.624Z,100874.97
2022-10-18T14:28:14.173Z,100875.84
2022-10-18T14:31:08.288Z,100883.63
2022-10-18T14:33:41.739Z,100878.47
2022-10-18T14:36:15.510Z,100878.53
2022-10-18T14:38:53.694Z,100876.03
2022-10-18T14:41:20.450Z,100881.31
2022-10-18T14:43:48.261Z,100878.84
2022-10-18T14:46:28.972Z,100880.69
2022-10-18T14:49:04.528Z,100883.41
2022-10-18T14:51:36.540Z,100875.81
2022-10-18T14:54:03.736Z,100881.97
2022-10-18T14:56:36.518Z,100889.00
2022-10-18T14:59:13.273Z,100872.91
2022-10-18T15:01:40.110Z,100874.06
2022-10-18T15:04:11.614Z,100876.06
2022-10-18T15:06:44.351Z,100876.31
2022-10-18T15:09:14.413Z,100882.59
2022-10-18T15:11:44.698Z,100876.78
2022-10-18T15:14:17.914Z,100873.47
2022-10-18T15:16:47.042Z,100872.78
2022-10-18T15:19:16.780Z,100878.00
2022-10-18T15:25:26.754Z,100868.09
2022-10-18T15:27:58.119Z,100868.19
2022-10-18T15:30:41.191Z,100869.16
2022-10-18T15:33:21.434Z,100867.56
2022-10-18T15:35:48.713Z,100865.03
2022-10-18T15:38:28.014Z,100864.28
2022-10-18T15:40:55.528Z,100873.75
2022-10-18T15:43:27.732Z,100870.41
2022-10-18T15:46:01.729Z,100867.06
2022-10-18T15:48:39.493Z,100871.53
2022-10-18T15:51:20.467Z,100876.78
2022-10-18T15:53:49.874Z,100879.50
2022-10-18T15:56:35.939Z,100870.22
2022-10-18T15:59:06.957Z,100881.44
2022-10-18T16:01:38.165Z,100873.84
2022-10-18T16:04:18.168Z,100865.38
2022-10-18T16:06:44.962Z,100875.75
2022-10-18T16:09:17.783Z,100875.84
2022-10-18T16:11:45.335Z,100868.25
2022-10-18T16:14:12.379Z,100873.47
2022-10-18T16:16:40.211Z,100882.13
2022-10-18T16:19:08.268Z,100872.84
2022-10-18T16:21:39.010Z,100874.69
2022-10-18T16:24:06.356Z,100877.41
2022-10-18T16:26:34.530Z,100876.63
2022-10-18T16:29:01.648Z,100887.03
2022-10-18T16:31:32.894Z,100882.88
2022-10-18T16:34:00.508Z,100889.00
2022-10-18T16:36:31.527Z,100893.38
2022-10-18T16:39:01.735Z,100893.47
2022-10-18T16:41:28.867Z,100902.16
2022-10-18T16:43:55.636Z,100909.06
2022-10-18T16:46:28.621Z,100903.19
2022-10-18T16:48:56.250Z,100902.41
2022-10-18T16:51:24.001Z,100905.91
2022-10-18T16:53:53.265Z,100907.75
2022-10-18T16:56:30.601Z,100910.41
2022-10-18T16:58:58.352Z,100915.59
2022-10-18T17:01:26.256Z,100923.38
2022-10-18T17:03:55.150Z,100920.88
2022-10-18T17:06:29.470Z,100925.25
2022-10-18T17:08:57.490Z,100925.38
2022-10-18T17:11:28.191Z,100934.00
2022-10-18T17:13:55.756Z,100933.22
2022-10-18T17:16:30.750Z,100933.25
2022-10-18T17:19:01.241Z,100941.03
2022-10-18T17:21:29.729Z,100935.97
2022-10-18T17:24:01.115Z,100938.56
2022-10-18T17:26:29.677Z,100939.50
2022-10-18T17:29:00.629Z,100936.13
2022-10-18T17:31:30.433Z,100944.72
2022-10-18T17:33:58.726Z,100937.09
2022-10-18T17:36:26.347Z,100935.41
2022-10-18T17:38:55.078Z,100934.63
2022-10-18T17:41:22.351Z,100938.78
2022-10-18T17:43:49.603Z,100941.44
2022-10-18T17:46:17.781Z,100947.53
2022-10-18T17:48:44.934Z,100951.03
2022-10-18T17:51:16.116Z,100951.94
2022-10-18T17:53:42.911Z,100957.97
2022-10-18T17:56:12.200Z,100953.75
2022-10-18T17:58:39.405Z,100953.81
2022-10-18T18:01:10.664Z,100949.56
2022-10-18T18:03:37.758Z,100953.84
2022-10-18T18:06:19.820Z,100956.44
2022-10-18T18:08:48.440Z,100960.75
2022-10-18T18:11:16.974Z,100954.78
2022-10-18T18:13:43.773Z,100953.13
2022-10-18T18:16:16.581Z,100944.66
2022-10-18T18:18:44.786Z,100937.03
2022-10-18T18:21:12.351Z,100949.00
2022-10-18T18:23:39.275Z,100958.41
2022-10-18T18:26:06.478Z,100967.78
2022-10-18T18:28:36.067Z,100963.53
2022-10-18T18:31:16.929Z,100965.28
2022-10-18T18:33:44.857Z,100964.44
2022-10-18T18:36:12.149Z,100958.50
2022-10-18T18:38:42.615Z,100959.38
2022-10-18T18:41:14.026Z,100952.56
2022-10-18T18:43:49.852Z,100947.50
2022-10-18T18:46:16.742Z,100950.91
2022-10-18T18:48:44.230Z,100959.47
2022-10-18T18:51:16.425Z,100957.78
2022-10-18T18:53:45.504Z,100950.13
2022-10-18T18:56:19.247Z,100946.75
2022-10-18T18:58:47.609Z,100945.06
2022-10-18T19:01:27.489Z,100950.16
2022-10-18T19:03:56.748Z,100940.84
2022-10-18T19:10:33.269Z,100944.19
2022-10-18T19:13:00.454Z,100949.31
2022-10-18T19:15:28.148Z,100954.47
2022-10-18T19:17:59.262Z,100951.06
2022-10-18T19:20:26.008Z,100950.22
2022-10-18T19:22:53.542Z,100951.09
2022-10-18T19:25:22.262Z,100956.22
2022-10-18T19:27:51.556Z,100955.34
2022-10-18T19:30:19.762Z,100960.47
2022-10-18T19:33:01.123Z,100961.34
2022-10-18T19:35:40.505Z,100952.00
2022-10-18T19:38:07.266Z,100959.66
2022-10-18T19:40:33.991Z,100966.44
2022-10-18T19:43:00.797Z,100958.78
2022-10-18T19:45:27.592Z,100963.06
2022-10-18T19:47:54.309Z,100963.91
2022-10-18T19:50:21.130Z,100957.97
2022-10-18T19:52:48.042Z,100964.78
2022-10-18T19:55:14.933Z,100967.34
2022-10-18T19:57:41.749Z,100960.53
2022-10-18T20:00:10.850Z,100958.84
2022-10-18T20:02:38.056Z,100960.53
2022-10-18T20:05:05.327Z,100955.44
2022-10-18T20:07:32.137Z,100952.91
2022-10-18T20:09:59.580Z,100959.72
2022-10-18T20:12:26.542Z,100962.28
2022-10-18T20:14:53.206Z,100968.22
2022-10-18T20:17:20.799Z,100959.72
2022-10-18T20:19:48.464Z,100963.13
2022-10-18T20:22:15.271Z,100961.44
2022-10-18T20:24:42.063Z,100960.56
2022-10-18T20:27:08.856Z,100958.88
2022-10-18T20:29:35.674Z,100955.47
2022-10-18T20:32:02.444Z,100947.84
2022-10-18T20:34:29.382Z,100949.53
2022-10-18T20:36:56.290Z,100952.94
2022-10-18T20:39:23.294Z,100959.72
2022-10-18T20:41:50.744Z,100958.03
2022-10-18T20:44:19.678Z,100952.09
2022-10-18T20:46:47.136Z,100952.94
2022-10-18T20:49:16.544Z,100950.41
2022-10-18T20:51:43.516Z,100951.22
2022-10-18T20:54:11.044Z,100947.84
2022-10-18T20:56:39.120Z,100943.59
2022-10-18T20:59:09.553Z,100938.47
2022-10-18T21:01:38.168Z,100943.59
2022-10-18T21:04:08.182Z,100946.13
2022-10-18T21:06:41.949Z,100956.31
2022-10-18T21:09:13.899Z,100952.03
2022-10-18T21:11:45.346Z,100944.41
2022-10-18T21:14:16.077Z,100958.00
2022-10-18T21:16:43.873Z,100958.00
2022-10-18T21:19:30.793Z,100953.75
2022-10-18T21:21:58.001Z,100954.59
2022-10-18T21:24:26.180Z,100956.28
2022-10-18T21:26:53.849Z,100962.22
2022-10-18T21:29:22.654Z,100963.94
2022-10-18T21:31:52.464Z,100950.31
2022-10-18T21:34:19.250Z,100946.94
2022-10-18T21:36:47.899Z,100940.13
2022-10-18T21:39:19.283Z,100937.56
2022-10-18T21:41:46.939Z,100934.16
2022-10-18T21:44:14.736Z,100940.09
2022-10-18T21:46:46.638Z,100945.19
2022-10-18T21:49:15.145Z,100942.63
2022-10-18T21:51:43.168Z,100940.94
2022-10-18T21:54:16.285Z,100939.22
2022-10-18T21:56:43.380Z,100932.41
2022-10-18T21:59:13.143Z,100941.78
2022-10-18T22:01:40.704Z,100942.63
2022-10-18T22:04:18.449Z,100939.19
2022-10-18T22:06:45.189Z,100941.72
2022-10-18T22:09:11.949Z,100938.34
2022-10-18T22:11:44.969Z,100934.91
2022-10-18T22:14:11.944Z,100930.66
2022-10-18T22:16:39.142Z,100931.50
2022-10-18T22:19:07.292Z,100925.56
2022-10-18T22:21:34.871Z,100924.69
2022-10-18T22:24:06.555Z,100925.56
2022-10-18T22:26:37.640Z,100924.69
2022-10-18T22:29:13.792Z,100928.09
2022-10-18T22:31:45.336Z,100926.38
2022-10-18T22:34:17.447Z,100925.53
2022-10-18T22:36:45.703Z,100923.00
2022-10-18T22:39:16.863Z,100924.66
2022-10-18T22:41:44.853Z,100920.41
2022-10-18T22:44:14.540Z,100924.69
2022-10-18T22:46:42.349Z,100918.69
2022-10-18T22:49:09.151Z,100911.06
2022-10-18T22:54:02.954Z,100916.16
2022-10-18T22:56:29.670Z,100919.53
2022-10-18T22:58:56.433Z,100928.03
2022-10-18T23:01:24.317Z,100918.66
2022-10-18T23:03:59.691Z,100913.56
2022-10-18T23:06:29.649Z,100910.16
2022-10-18T23:08:59.761Z,100910.16
2022-10-18T23:11:28.245Z,100903.34
2022-10-18T23:13:55.407Z,100906.75
2022-10-18T23:16:22.658Z,100913.53
2022-10-18T23:18:55.326Z,100904.19
2022-10-18T23:21:24.335Z,100899.06
2022-10-18T23:23:52.846Z,100894.78
2022-10-18T23:26:23.557Z,100893.06
2022-10-18T23:28:52.204Z,100894.75
2022-10-18T23:31:23.257Z,100891.34
2022-10-18T23:33:53.316Z,100898.94
2022-10-18T23:36:21.368Z,100897.22
2022-10-18T23:38:48.243Z,100898.06
2022-10-18T23:41:16.454Z,100898.03
2022-10-18T23:43:43.821Z,100888.66
2022-10-18T23:46:12.593Z,100895.47
2022-10-18T23:48:39.817Z,100901.38
2022-10-18T23:51:07.668Z,100888.63
2022-10-18T23:53:35.082Z,100894.53
2022-10-18T23:56:09.414Z,100892.00
2022-10-18T23:58:37.278Z,100895.38
